sensor_id;sensor_type;location;lat;lon;timestamp;pressure;altitude;pressure_sealevel;temperature;humidity
62508;BME280;48556;51.972;4.624;2022-08-01T00:53:12;101809.00;;;23.91;64.34
62508;BME280;48556;51.972;4.624;2022-08-01T00:55:38;101803.09;;;24.17;63.14
62508;BME280;48556;51.972;4.624;2022-08-01T00:58:05;101805.44;;;24.08;63.80
62508;BME280;48556;51.972;4.624;2022-08-01T01:00:31;101816.75;;;23.79;64.88
62508;BME280;48556;51.972;4.624;2022-08-01T01:03:00;101813.28;;;23.60;65.67
62508;BME280;48556;51.972;4.624;2022-08-01T01:05:32;101806.06;;;23.60;65.31
62508;BME280;48556;51.972;4.624;2022-08-01T01:08:13;101806.50;;;23.86;64.83
62508;BME280;48556;51.972;4.624;2022-08-01T01:11:06;101811.63;;;23.57;65.44
62508;BME280;48556;51.972;4.624;2022-08-01T01:13:46;101806.53;;;23.33;66.25
62508;BME280;48556;51.972;4.624;2022-08-01T01:16:18;101794.47;;;23.06;67.19
62508;BME280;48556;51.972;4.624;2022-08-01T01:18:57;101799.28;;;23.53;66.17
62508;BME280;48556;51.972;4.624;2022-08-01T01:21:54;101798.72;;;23.64;65.92
62508;BME280;48556;51.972;4.624;2022-08-01T01:24:37;101796.91;;;23.64;65.88
62508;BME280;48556;51.972;4.624;2022-08-01T01:29:51;101798.41;;;23.52;66.30
62508;BME280;48556;51.972;4.624;2022-08-01T01:32:35;101796.38;;;23.58;65.93
62508;BME280;48556;51.972;4.624;2022-08-01T01:35:07;101802.19;;;23.66;64.92
62508;BME280;48556;51.972;4.624;2022-08-01T01:37:38;101802.44;;;23.26;66.11
62508;BME280;48556;51.972;4.624;2022-08-01T01:40:07;101801.44;;;23.10;66.03
62508;BME280;48556;51.972;4.624;2022-08-01T01:42:37;101812.84;;;22.77;67.38
62508;BME280;48556;51.972;4.624;2022-08-01T01:45:05;101815.13;;;22.27;68.31
62508;BME280;48556;51.972;4.624;2022-08-01T01:47:34;101815.38;;;22.80;67.44
62508;BME280;48556;51.972;4.624;2022-08-01T01:50:02;101810.34;;;22.91;67.35
62508;BME280;48556;51.972;4.624;2022-08-01T01:52:31;101800.69;;;23.06;67.20
62508;BME280;48556;51.972;4.624;2022-08-01T01:54:59;101817.09;;;23.00;67.29
62508;BME280;48556;51.972;4.624;2022-08-01T01:57:30;101810.00;;;23.18;66.98
62508;BME280;48556;51.972;4.624;2022-08-01T02:00:00;101808.38;;;23.50;66.01
62508;BME280;48556;51.972;4.624;2022-08-01T02:02:28;101817.75;;;23.59;65.97
62508;BME280;48556;51.972;4.624;2022-08-01T02:04:56;101809.38;;;23.83;64.76
62508;BME280;48556;51.972;4.624;2022-08-01T02:07:25;101811.91;;;23.33;66.26
62508;BME280;48556;51.972;4.624;2022-08-01T02:09:54;101813.16;;;23.07;66.53
62508;BME280;48556;51.972;4.624;2022-08-01T02:12:21;101808.13;;;22.82;67.62
62508;BME280;48556;51.972;4.624;2022-08-01T02:14:50;101813.34;;;23.04;67.14
62508;BME280;48556;51.972;4.624;2022-08-01T02:17:20;101810.25;;;23.31;66.35
62508;BME280;48556;51.972;4.624;2022-08-01T02:19:47;101819.72;;;23.01;66.92
62508;BME280;48556;51.972;4.624;2022-08-01T02:22:27;101815.03;;;23.05;66.84
62508;BME280;48556;51.972;4.624;2022-08-01T02:25:00;101819.16;;;23.14;66.55
62508;BME280;48556;51.972;4.624;2022-08-01T02:27:34;101808.75;;;22.87;67.13
62508;BME280;48556;51.972;4.624;2022-08-01T02:30:08;101810.41;;;23.09;66.47
62508;BME280;48556;51.972;4.624;2022-08-01T02:32:40;101808.81;;;23.24;66.12
62508;BME280;48556;51.972;4.624;2022-08-01T02:35:23;101811.88;;;23.16;65.73
62508;BME280;48556;51.972;4.624;2022-08-01T02:37:53;101817.69;;;23.43;65.34
62508;BME280;48556;51.972;4.624;2022-08-01T02:40:19;101824.19;;;23.20;66.16
62508;BME280;48556;51.972;4.624;2022-08-01T02:42:49;101817.59;;;23.45;65.28
62508;BME280;48556;51.972;4.624;2022-08-01T02:45:18;101824.28;;;23.18;65.39
62508;BME280;48556;51.972;4.624;2022-08-01T02:47:50;101820.38;;;23.43;64.59
62508;BME280;48556;51.972;4.624;2022-08-01T02:50:18;101824.56;;;23.49;64.93
62508;BME280;48556;51.972;4.624;2022-08-01T02:52:48;101815.00;;;23.61;64.56
62508;BME280;48556;51.972;4.624;2022-08-01T02:55:19;101815.69;;;23.47;64.79
62508;BME280;48556;51.972;4.624;2022-08-01T02:57:54;101811.88;;;23.16;65.52
62508;BME280;48556;51.972;4.624;2022-08-01T03:00:23;101812.63;;;23.54;64.68
62508;BME280;48556;51.972;4.624;2022-08-01T03:02:52;101815.53;;;23.32;65.20
62508;BME280;48556;51.972;4.624;2022-08-01T03:05:27;101815.91;;;23.25;64.76
62508;BME280;48556;51.972;4.624;2022-08-01T03:07:55;101815.91;;;23.25;64.71
62508;BME280;48556;51.972;4.624;2022-08-01T03:10:24;101820.72;;;23.18;65.13
62508;BME280;48556;51.972;4.624;2022-08-01T03:12:53;101824.13;;;23.02;65.46
62508;BME280;48556;51.972;4.624;2022-08-01T03:15:23;101822.06;;;23.08;65.52
62508;BME280;48556;51.972;4.624;2022-08-01T03:17:55;101826.44;;;23.10;65.21
62508;BME280;48556;51.972;4.624;2022-08-01T03:20:30;101825.81;;;22.86;65.83
62508;BME280;48556;51.972;4.624;2022-08-01T03:23:03;101832.31;;;22.99;65.68
62508;BME280;48556;51.972;4.624;2022-08-01T03:25:35;101831.38;;;23.19;64.81
62508;BME280;48556;51.972;4.624;2022-08-01T03:28:05;101829.44;;;22.85;65.66
62508;BME280;48556;51.972;4.624;2022-08-01T03:30:36;101828.78;;;23.18;65.28
62508;BME280;48556;51.972;4.624;2022-08-01T03:33:03;101834.56;;;23.28;64.93
62508;BME280;48556;51.972;4.624;2022-08-01T03:35:47;101835.31;;;23.12;65.27
62508;BME280;48556;51.972;4.624;2022-08-01T03:38:18;101838.09;;;23.28;65.24
62508;BME280;48556;51.972;4.624;2022-08-01T03:40:52;101820.69;;;23.54;64.10
62508;BME280;48556;51.972;4.624;2022-08-01T03:43:26;101838.94;;;23.29;64.43
62508;BME280;48556;51.972;4.624;2022-08-01T03:46:01;101832.56;;;23.31;64.89
62508;BME280;48556;51.972;4.624;2022-08-01T03:48:37;101839.53;;;23.35;64.70
62508;BME280;48556;51.972;4.624;2022-08-01T03:51:05;101834.63;;;23.07;65.81
62508;BME280;48556;51.972;4.624;2022-08-01T03:53:41;101831.06;;;23.26;65.22
62508;BME280;48556;51.972;4.624;2022-08-01T03:56:17;101826.34;;;23.31;64.83
62508;BME280;48556;51.972;4.624;2022-08-01T03:58:45;101822.41;;;23.38;64.53
62508;BME280;48556;51.972;4.624;2022-08-01T04:01:12;101833.63;;;23.64;64.21
62508;BME280;48556;51.972;4.624;2022-08-01T04:03:40;101827.03;;;23.34;64.70
62508;BME280;48556;51.972;4.624;2022-08-01T04:06:07;101834.16;;;23.35;64.91
62508;BME280;48556;51.972;4.624;2022-08-01T04:08:36;101832.00;;;23.25;65.13
62508;BME280;48556;51.972;4.624;2022-08-01T04:11:03;101831.25;;;23.58;64.06
62508;BME280;48556;51.972;4.624;2022-08-01T04:13:29;101832.16;;;23.21;64.52
62508;BME280;48556;51.972;4.624;2022-08-01T04:16:00;101834.72;;;23.42;64.03
62508;BME280;48556;51.972;4.624;2022-08-01T04:18:28;101828.97;;;23.50;63.43
62508;BME280;48556;51.972;4.624;2022-08-01T04:20:55;101826.75;;;23.76;62.80
62508;BME280;48556;51.972;4.624;2022-08-01T04:23:37;101827.56;;;23.60;62.60
62508;BME280;48556;51.972;4.624;2022-08-01T04:29:17;101830.94;;;23.10;63.91
62508;BME280;48556;51.972;4.624;2022-08-01T04:31:47;101836.81;;;23.18;63.97
62508;BME280;48556;51.972;4.624;2022-08-01T04:34:22;101837.09;;;23.12;64.07
62508;BME280;48556;51.972;4.624;2022-08-01T04:37:10;101839.91;;;23.09;64.24
62508;BME280;48556;51.972;4.624;2022-08-01T04:39:56;101846.25;;;22.69;65.50
62508;BME280;48556;51.972;4.624;2022-08-01T04:42:27;101852.09;;;22.40;66.32
62508;BME280;48556;51.972;4.624;2022-08-01T04:44:57;101842.06;;;22.64;66.27
62508;BME280;48556;51.972;4.624;2022-08-01T04:47:30;101852.69;;;22.65;66.44
62508;BME280;48556;51.972;4.624;2022-08-01T04:49:56;101852.78;;;22.64;65.74
62508;BME280;48556;51.972;4.624;2022-08-01T04:52:22;101845.63;;;23.01;65.30
62508;BME280;48556;51.972;4.624;2022-08-01T04:54:48;101841.97;;;22.84;65.38
62508;BME280;48556;51.972;4.624;2022-08-01T04:57:16;101847.22;;;23.05;65.00
62508;BME280;48556;51.972;4.624;2022-08-01T04:59:43;101846.91;;;23.13;64.79
62508;BME280;48556;51.972;4.624;2022-08-01T05:02:17;101848.66;;;23.14;64.87
62508;BME280;48556;51.972;4.624;2022-08-01T05:04:45;101853.34;;;23.45;63.91
62508;BME280;48556;51.972;4.624;2022-08-01T05:07:14;101853.50;;;22.86;65.30
62508;BME280;48556;51.972;4.624;2022-08-01T05:09:44;101857.97;;;23.24;64.69
62508;BME280;48556;51.972;4.624;2022-08-01T05:12:16;101862.28;;;23.46;63.61
62508;BME280;48556;51.972;4.624;2022-08-01T05:14:42;101863.19;;;23.27;64.37
62508;BME280;48556;51.972;4.624;2022-08-01T05:17:08;101861.22;;;23.48;64.02
62508;BME280;48556;51.972;4.624;2022-08-01T05:19:36;101851.94;;;23.55;63.52
62508;BME280;48556;51.972;4.624;2022-08-01T05:22:07;101850.16;;;23.00;64.58
62508;BME280;48556;51.972;4.624;2022-08-01T05:24:39;101861.81;;;23.55;63.45
62508;BME280;48556;51.972;4.624;2022-08-01T05:30:38;101855.66;;;23.70;63.36
62508;BME280;48556;51.972;4.624;2022-08-01T05:33:46;101854.63;;;23.73;63.02
62508;BME280;48556;51.972;4.624;2022-08-01T05:36:37;101857.31;;;23.55;63.91
62508;BME280;48556;51.972;4.624;2022-08-01T05:39:12;101857.31;;;23.73;63.41
62508;BME280;48556;51.972;4.624;2022-08-01T05:41:40;101859.84;;;23.76;63.15
62508;BME280;48556;51.972;4.624;2022-08-01T05:44:51;101857.22;;;24.10;62.29
62508;BME280;48556;51.972;4.624;2022-08-01T05:47:32;101859.72;;;24.30;61.57
62508;BME280;48556;51.972;4.624;2022-08-01T05:50:00;101863.81;;;24.37;61.75
62508;BME280;48556;51.972;4.624;2022-08-01T05:52:25;101862.22;;;24.51;61.70
62508;BME280;48556;51.972;4.624;2022-08-01T05:54:51;101862.53;;;24.45;61.48
62508;BME280;48556;51.972;4.624;2022-08-01T05:57:22;101867.97;;;24.10;62.42
62508;BME280;48556;51.972;4.624;2022-08-01T05:59:48;101860.66;;;24.47;61.47
62508;BME280;48556;51.972;4.624;2022-08-01T06:02:19;101867.91;;;24.11;62.50
62508;BME280;48556;51.972;4.624;2022-08-01T06:04:55;101873.22;;;23.95;62.84
62508;BME280;48556;51.972;4.624;2022-08-01T06:07:23;101872.84;;;24.03;62.79
62508;BME280;48556;51.972;4.624;2022-08-01T06:19:48;101889.06;;;23.28;63.58
62508;BME280;48556;51.972;4.624;2022-08-01T06:22:17;101888.00;;;23.13;64.69
62508;BME280;48556;51.972;4.624;2022-08-01T06:24:49;101895.72;;;22.81;65.14
62508;BME280;48556;51.972;4.624;2022-08-01T06:27:14;101886.69;;;23.22;64.17
62508;BME280;48556;51.972;4.624;2022-08-01T06:29:43;101889.59;;;23.71;63.26
62508;BME280;48556;51.972;4.624;2022-08-01T06:32:17;101896.41;;;23.61;63.61
62508;BME280;48556;51.972;4.624;2022-08-01T06:45:01;101896.53;;;23.21;65.47
62508;BME280;48556;51.972;4.624;2022-08-01T06:47:35;101904.22;;;23.10;65.96
62508;BME280;48556;51.972;4.624;2022-08-01T06:50:15;101903.50;;;23.07;66.16
62508;BME280;48556;51.972;4.624;2022-08-01T06:53:16;101913.38;;;23.25;65.38
62508;BME280;48556;51.972;4.624;2022-08-01T06:59:30;101912.50;;;23.79;63.85
62508;BME280;48556;51.972;4.624;2022-08-01T07:01:56;101912.44;;;23.80;63.82
62508;BME280;48556;51.972;4.624;2022-08-01T07:04:28;101913.97;;;24.03;62.99
62508;BME280;48556;51.972;4.624;2022-08-01T07:06:56;101916.50;;;23.52;63.62
62508;BME280;48556;51.972;4.624;2022-08-01T07:13:01;101924.53;;;23.16;64.85
62508;BME280;48556;51.972;4.624;2022-08-01T07:15:54;101932.28;;;23.03;65.07
62508;BME280;48556;51.972;4.624;2022-08-01T07:18:30;101929.41;;;22.87;65.78
62508;BME280;48556;51.972;4.624;2022-08-01T07:21:01;101937.41;;;22.49;67.00
62508;BME280;48556;51.972;4.624;2022-08-01T07:23:30;101931.22;;;22.67;66.31
62508;BME280;48556;51.972;4.624;2022-08-01T07:29:50;101939.13;;;22.70;66.73
62508;BME280;48556;51.972;4.624;2022-08-01T07:36:09;101948.44;;;23.20;65.35
62508;BME280;48556;51.972;4.624;2022-08-01T07:38:37;101952.84;;;22.83;65.81
62508;BME280;48556;51.972;4.624;2022-08-01T07:41:09;101961.41;;;22.92;65.98
62508;BME280;48556;51.972;4.624;2022-08-01T07:43:35;101964.38;;;23.04;66.17
62508;BME280;48556;51.972;4.624;2022-08-01T07:46:04;101960.03;;;22.83;64.89
62508;BME280;48556;51.972;4.624;2022-08-01T07:54:45;101970.75;;;22.83;64.41
62508;BME280;48556;51.972;4.624;2022-08-01T07:57:21;101972.09;;;22.73;63.92
62508;BME280;48556;51.972;4.624;2022-08-01T08:00:30;101984.78;;;22.69;63.97
62508;BME280;48556;51.972;4.624;2022-08-01T08:02:56;101986.19;;;22.36;64.42
62508;BME280;48556;51.972;4.624;2022-08-01T08:05:42;101991.09;;;22.25;65.57
62508;BME280;48556;51.972;4.624;2022-08-01T08:12:09;101983.25;;;22.63;63.20
62508;BME280;48556;51.972;4.624;2022-08-01T08:14:38;101985.09;;;22.82;62.42
62508;BME280;48556;51.972;4.624;2022-08-01T08:20:41;101991.00;;;22.49;62.87
62508;BME280;48556;51.972;4.624;2022-08-01T08:26:30;101992.19;;;22.83;62.07
62508;BME280;48556;51.972;4.624;2022-08-01T08:29:05;101989.66;;;23.19;61.21
62508;BME280;48556;51.972;4.624;2022-08-01T08:31:34;101990.25;;;23.26;60.92
62508;BME280;48556;51.972;4.624;2022-08-01T08:34:31;101992.38;;;23.75;59.81
62508;BME280;48556;51.972;4.624;2022-08-01T08:50:08;101994.56;;;23.84;59.00
62508;BME280;48556;51.972;4.624;2022-08-01T08:52:48;101999.53;;;23.94;55.43
62508;BME280;48556;51.972;4.624;2022-08-01T08:55:32;102001.75;;;23.28;57.76
62508;BME280;48556;51.972;4.624;2022-08-01T08:58:07;102014.00;;;23.53;56.92
62508;BME280;48556;51.972;4.624;2022-08-01T09:00:47;102012.66;;;23.81;55.47
62508;BME280;48556;51.972;4.624;2022-08-01T09:03:43;102010.84;;;24.53;53.79
62508;BME280;48556;51.972;4.624;2022-08-01T09:09:38;102015.84;;;24.26;56.40
62508;BME280;48556;51.972;4.624;2022-08-01T09:12:54;102014.59;;;24.84;54.11
62508;BME280;48556;51.972;4.624;2022-08-01T09:22:16;102010.16;;;25.00;53.31
62508;BME280;48556;51.972;4.624;2022-08-01T09:25:10;102022.66;;;25.17;52.75
62508;BME280;48556;51.972;4.624;2022-08-01T09:27:47;102015.66;;;25.15;52.24
62508;BME280;48556;51.972;4.624;2022-08-01T09:30:41;102021.13;;;25.29;52.32
62508;BME280;48556;51.972;4.624;2022-08-01T09:33:15;102019.09;;;25.66;50.32
62508;BME280;48556;51.972;4.624;2022-08-01T09:35:57;102019.81;;;25.54;50.00
62508;BME280;48556;51.972;4.624;2022-08-01T09:48:11;102024.94;;;25.25;50.02
62508;BME280;48556;51.972;4.624;2022-08-01T09:50:48;102030.69;;;25.19;49.92
62508;BME280;48556;51.972;4.624;2022-08-01T09:54:02;102045.63;;;25.24;50.00
62508;BME280;48556;51.972;4.624;2022-08-01T10:03:33;102036.00;;;26.61;46.83
62508;BME280;48556;51.972;4.624;2022-08-01T10:19:30;102024.31;;;27.05;45.86
62508;BME280;48556;51.972;4.624;2022-08-01T10:25:43;102025.69;;;27.69;42.83
62508;BME280;48556;51.972;4.624;2022-08-01T10:28:23;102017.47;;;27.97;41.73
62508;BME280;48556;51.972;4.624;2022-08-01T10:34:06;102015.59;;;27.58;42.70
62508;BME280;48556;51.972;4.624;2022-08-01T10:37:01;102024.50;;;27.45;42.15
62508;BME280;48556;51.972;4.624;2022-08-01T10:39:26;102020.22;;;27.56;42.75
62508;BME280;48556;51.972;4.624;2022-08-01T10:42:02;102027.50;;;27.12;43.49
62508;BME280;48556;51.972;4.624;2022-08-01T10:44:50;102025.25;;;27.33;42.79
62508;BME280;48556;51.972;4.624;2022-08-01T10:51:10;102034.78;;;26.67;44.22
62508;BME280;48556;51.972;4.624;2022-08-01T11:00:25;102023.09;;;28.35;41.11
62508;BME280;48556;51.972;4.624;2022-08-01T11:03:09;102024.16;;;27.92;42.38
62508;BME280;48556;51.972;4.624;2022-08-01T11:12:41;102039.94;;;27.43;43.64
62508;BME280;48556;51.972;4.624;2022-08-01T11:17:51;102046.88;;;27.19;44.26
62508;BME280;48556;51.972;4.624;2022-08-01T11:24:16;102048.78;;;27.02;45.23
62508;BME280;48556;51.972;4.624;2022-08-01T11:40:17;102038.69;;;27.76;41.25
62508;BME280;48556;51.972;4.624;2022-08-01T11:43:30;102039.44;;;27.22;43.43
62508;BME280;48556;51.972;4.624;2022-08-01T11:45:56;102044.06;;;26.77;43.69
62508;BME280;48556;51.972;4.624;2022-08-01T11:48:44;102034.31;;;27.32;42.74
62508;BME280;48556;51.972;4.624;2022-08-01T11:55:20;102045.66;;;27.93;42.10
62508;BME280;48556;51.972;4.624;2022-08-01T11:57:49;102030.63;;;28.83;38.96
62508;BME280;48556;51.972;4.624;2022-08-01T12:03:55;102044.00;;;29.86;36.60
62508;BME280;48556;51.972;4.624;2022-08-01T12:06:28;102032.47;;;30.30;35.83
62508;BME280;48556;51.972;4.624;2022-08-01T12:08:53;102034.56;;;30.96;34.01
62508;BME280;48556;51.972;4.624;2022-08-01T12:14:57;102041.34;;;30.68;32.45
62508;BME280;48556;51.972;4.624;2022-08-01T12:17:56;102040.75;;;31.21;30.53
62508;BME280;48556;51.972;4.624;2022-08-01T12:20:51;102047.25;;;30.50;30.88
62508;BME280;48556;51.972;4.624;2022-08-01T12:23:17;102048.47;;;30.58;33.71
62508;BME280;48556;51.972;4.624;2022-08-01T12:25:53;102044.75;;;29.75;35.97
62508;BME280;48556;51.972;4.624;2022-08-01T12:28:25;102052.91;;;30.23;34.75
62508;BME280;48556;51.972;4.624;2022-08-01T12:30:51;102044.44;;;29.42;36.52
62508;BME280;48556;51.972;4.624;2022-08-01T12:36:36;102039.97;;;29.54;34.73
62508;BME280;48556;51.972;4.624;2022-08-01T12:39:02;102044.31;;;29.44;35.79
62508;BME280;48556;51.972;4.624;2022-08-01T12:42:06;102041.44;;;29.08;36.25
62508;BME280;48556;51.972;4.624;2022-08-01T12:45:05;102048.69;;;29.08;36.21
62508;BME280;48556;51.972;4.624;2022-08-01T12:51:25;102037.34;;;29.53;34.76
62508;BME280;48556;51.972;4.624;2022-08-01T12:58:30;102044.22;;;31.12;32.40
62508;BME280;48556;51.972;4.624;2022-08-01T13:08:40;102035.69;;;31.28;31.16
62508;BME280;48556;51.972;4.624;2022-08-01T13:14:52;102037.69;;;31.37;31.37
62508;BME280;48556;51.972;4.624;2022-08-01T13:17:34;102039.09;;;31.75;30.69
62508;BME280;48556;51.972;4.624;2022-08-01T13:20:07;102039.66;;;31.24;30.82
62508;BME280;48556;51.972;4.624;2022-08-01T13:22:35;102027.16;;;30.76;31.49
62508;BME280;48556;51.972;4.624;2022-08-01T13:25:12;102028.44;;;31.06;30.15
62508;BME280;48556;51.972;4.624;2022-08-01T13:27:41;102032.84;;;30.95;30.78
62508;BME280;48556;51.972;4.624;2022-08-01T13:30:16;102025.53;;;31.52;29.38
62508;BME280;48556;51.972;4.624;2022-08-01T13:32:43;102028.00;;;31.99;28.78
62508;BME280;48556;51.972;4.624;2022-08-01T13:35:21;102026.06;;;32.23;28.10
62508;BME280;48556;51.972;4.624;2022-08-01T13:37:47;102030.19;;;32.17;28.15
62508;BME280;48556;51.972;4.624;2022-08-01T13:40:27;102024.84;;;32.79;27.74
62508;BME280;48556;51.972;4.624;2022-08-01T13:42:53;102015.22;;;32.11;28.08
62508;BME280;48556;51.972;4.624;2022-08-01T13:45:22;102019.34;;;31.62;29.11
62508;BME280;48556;51.972;4.624;2022-08-01T13:47:48;102021.88;;;31.08;29.38
62508;BME280;48556;51.972;4.624;2022-08-01T13:50:16;102012.38;;;31.14;29.50
62508;BME280;48556;51.972;4.624;2022-08-01T13:52:44;102011.38;;;31.81;28.21
62508;BME280;48556;51.972;4.624;2022-08-01T13:55:10;102005.69;;;34.01;24.92
62508;BME280;48556;51.972;4.624;2022-08-01T13:57:38;102005.16;;;35.30;22.91
62508;BME280;48556;51.972;4.624;2022-08-01T14:00:06;102010.06;;;35.72;22.13
62508;BME280;48556;51.972;4.624;2022-08-01T14:02:32;102010.94;;;35.90;22.01
62508;BME280;48556;51.972;4.624;2022-08-01T14:05:07;101999.84;;;36.63;21.11
62508;BME280;48556;51.972;4.624;2022-08-01T14:07:33;101995.47;;;37.55;19.67
62508;BME280;48556;51.972;4.624;2022-08-01T14:09:58;101992.28;;;38.82;19.23
62508;BME280;48556;51.972;4.624;2022-08-01T14:12:29;101991.28;;;38.75;18.74
62508;BME280;48556;51.972;4.624;2022-08-01T14:14:55;101994.03;;;38.67;18.39
62508;BME280;48556;51.972;4.624;2022-08-01T14:17:21;101995.03;;;36.56;19.85
62508;BME280;48556;51.972;4.624;2022-08-01T14:19:47;101997.69;;;35.50;21.27
62508;BME280;48556;51.972;4.624;2022-08-01T14:22:12;101994.16;;;34.17;23.37
62508;BME280;48556;51.972;4.624;2022-08-01T14:24:38;101982.94;;;34.39;23.01
62508;BME280;48556;51.972;4.624;2022-08-01T14:27:06;101986.50;;;36.33;20.37
62508;BME280;48556;51.972;4.624;2022-08-01T14:29:31;101980.19;;;38.52;18.44
62508;BME280;48556;51.972;4.624;2022-08-01T14:31:57;101992.31;;;39.45;16.72
62508;BME280;48556;51.972;4.624;2022-08-01T14:34:23;101985.78;;;39.46;17.76
62508;BME280;48556;51.972;4.624;2022-08-01T14:36:50;101984.13;;;38.97;17.95
62508;BME280;48556;51.972;4.624;2022-08-01T14:39:18;101979.16;;;39.01;18.19
62508;BME280;48556;51.972;4.624;2022-08-01T14:41:44;101980.66;;;38.72;18.02
62508;BME280;48556;51.972;4.624;2022-08-01T14:44:24;101978.41;;;39.07;16.97
62508;BME280;48556;51.972;4.624;2022-08-01T14:46:50;101980.28;;;38.75;17.20
62508;BME280;48556;51.972;4.624;2022-08-01T14:49:15;101985.91;;;39.21;16.15
62508;BME280;48556;51.972;4.624;2022-08-01T14:51:42;101985.38;;;40.19;14.65
62508;BME280;48556;51.972;4.624;2022-08-01T14:54:26;101981.34;;;41.84;13.51
62508;BME280;48556;51.972;4.624;2022-08-01T14:56:52;101987.50;;;41.86;13.67
62508;BME280;48556;51.972;4.624;2022-08-01T14:59:20;101996.28;;;40.95;14.65
62508;BME280;48556;51.972;4.624;2022-08-01T15:01:48;101992.34;;;42.06;13.84
62508;BME280;48556;51.972;4.624;2022-08-01T15:04:23;102004.91;;;42.65;13.87
62508;BME280;48556;51.972;4.624;2022-08-01T15:06:51;102001.16;;;42.44;14.70
62508;BME280;48556;51.972;4.624;2022-08-01T15:09:19;101998.00;;;41.97;14.50
62508;BME280;48556;51.972;4.624;2022-08-01T15:11:45;102009.59;;;43.13;13.44
62508;BME280;48556;51.972;4.624;2022-08-01T15:14:15;102010.66;;;42.35;13.57
62508;BME280;48556;51.972;4.624;2022-08-01T15:17:27;102002.75;;;41.39;14.87
62508;BME280;48556;51.972;4.624;2022-08-01T18:16:23;101978.25;;;26.80;33.04
62508;BME280;48556;51.972;4.624;2022-08-01T18:18:55;101981.44;;;26.86;33.15
62508;BME280;48556;51.972;4.624;2022-08-01T18:22:16;101972.88;;;26.80;33.37
62508;BME280;48556;51.972;4.624;2022-08-01T18:24:49;101965.66;;;27.51;32.66
62508;BME280;48556;51.972;4.624;2022-08-01T18:27:51;101967.28;;;26.83;34.13
62508;BME280;48556;51.972;4.624;2022-08-01T18:30:21;101975.19;;;26.71;34.24
62508;BME280;48556;51.972;4.624;2022-08-01T18:36:23;101981.47;;;26.41;34.69
62508;BME280;48556;51.972;4.624;2022-08-01T18:46:22;101979.06;;;26.06;35.47
62508;BME280;48556;51.972;4.624;2022-08-01T18:52:38;101978.91;;;25.93;35.54
62508;BME280;48556;51.972;4.624;2022-08-01T18:55:40;101981.59;;;25.47;36.61
62508;BME280;48556;51.972;4.624;2022-08-01T19:01:51;101985.81;;;25.67;36.85
62508;BME280;48556;51.972;4.624;2022-08-01T19:07:39;101995.00;;;26.25;36.39
62508;BME280;48556;51.972;4.624;2022-08-01T19:17:34;101999.59;;;25.77;37.31
62508;BME280;48556;51.972;4.624;2022-08-01T19:20:12;101999.06;;;26.02;36.61
62508;BME280;48556;51.972;4.624;2022-08-01T19:22:58;102003.88;;;25.49;37.74
62508;BME280;48556;51.972;4.624;2022-08-01T19:25:33;101995.28;;;25.58;37.44
62508;BME280;48556;51.972;4.624;2022-08-01T19:32:01;101999.19;;;24.87;37.96
62508;BME280;48556;51.972;4.624;2022-08-01T19:58:35;102014.28;;;23.66;38.03
62508;BME280;48556;51.972;4.624;2022-08-01T20:01:44;102010.34;;;24.45;36.91
62508;BME280;48556;51.972;4.624;2022-08-01T20:04:27;102015.44;;;24.68;36.71
62508;BME280;48556;51.972;4.624;2022-08-01T20:07:01;102014.47;;;24.34;37.38
62508;BME280;48556;51.972;4.624;2022-08-01T20:13:49;102012.75;;;24.51;37.43
62508;BME280;48556;51.972;4.624;2022-08-01T20:16:22;102011.34;;;24.44;37.37
62508;BME280;48556;51.972;4.624;2022-08-01T20:22:09;102016.63;;;24.10;38.66
62508;BME280;48556;51.972;4.624;2022-08-01T20:24:52;102024.72;;;23.91;38.75
62508;BME280;48556;51.972;4.624;2022-08-01T20:31:20;102019.31;;;24.10;38.97
62508;BME280;48556;51.972;4.624;2022-08-01T20:34:18;102018.19;;;24.32;38.58
62508;BME280;48556;51.972;4.624;2022-08-01T20:40:20;102017.59;;;23.90;39.54
62508;BME280;48556;51.972;4.624;2022-08-01T20:49:27;102017.09;;;23.06;41.47
62508;BME280;48556;51.972;4.624;2022-08-01T20:52:09;102019.00;;;22.83;42.30
62508;BME280;48556;51.972;4.624;2022-08-01T20:55:04;102024.97;;;23.09;41.48
62508;BME280;48556;51.972;4.624;2022-08-01T21:01:29;102024.38;;;23.02;42.27
62508;BME280;48556;51.972;4.624;2022-08-01T21:11:18;102028.47;;;23.68;40.42
62508;BME280;48556;51.972;4.624;2022-08-01T21:14:09;102019.88;;;23.61;40.39
62508;BME280;48556;51.972;4.624;2022-08-01T21:16:46;102022.56;;;23.42;41.32
62508;BME280;48556;51.972;4.624;2022-08-01T21:19:27;102027.34;;;23.54;40.66
62508;BME280;48556;51.972;4.624;2022-08-01T21:32:32;102008.16;;;22.23;45.20
62508;BME280;48556;51.972;4.624;2022-08-01T21:35:31;102010.66;;;22.27;45.53
62508;BME280;48556;51.972;4.624;2022-08-01T21:41:56;102010.44;;;22.94;43.08
62508;BME280;48556;51.972;4.624;2022-08-01T21:44:45;102009.00;;;22.86;43.51
62508;BME280;48556;51.972;4.624;2022-08-01T21:47:24;102014.13;;;22.51;44.36
62508;BME280;48556;51.972;4.624;2022-08-01T21:50:23;102014.94;;;23.14;42.87
62508;BME280;48556;51.972;4.624;2022-08-01T21:53:12;102013.56;;;23.24;42.50
62508;BME280;48556;51.972;4.624;2022-08-01T21:56:00;102013.56;;;23.24;41.94
62508;BME280;48556;51.972;4.624;2022-08-01T22:01:42;102008.28;;;22.83;44.07
62508;BME280;48556;51.972;4.624;2022-08-01T22:04:42;102011.34;;;22.94;43.64
62508;BME280;48556;51.972;4.624;2022-08-01T22:11:33;101996.41;;;23.08;43.12
62508;BME280;48556;51.972;4.624;2022-08-01T22:18:07;102003.47;;;22.70;43.57
62508;BME280;48556;51.972;4.624;2022-08-01T22:24:45;102003.72;;;22.85;44.00
62508;BME280;48556;51.972;4.624;2022-08-01T22:27:26;101999.28;;;22.84;43.77
62508;BME280;48556;51.972;4.624;2022-08-01T22:30:07;101999.72;;;22.94;43.96